sensor_id;sensor_type;location;lat;lon;timestamp;pressure;altitude;pressure_sealevel;temperature;humidity
20145;BME280;10233;50.814;6.590;2023-11-21T00:00:25;99690.16;;;9.74;100.00
20145;BME280;10233;50.814;6.590;2023-11-21T00:01:26;99693.84;;;9.73;100.00
20145;BME280;10233;50.814;6.590;2023-11-21T00:02:27;99689.31;;;9.80;100.00
20145;BME280;10233;50.814;6.590;2023-11-21T00:03:28;99683.81;;;9.75;100.00
20145;BME280;10233;50.814;6.590;2023-11-21T00:04:29;99683.22;;;9.73;100.00
20145;BME280;10233;50.814;6.590;2023-11-21T00:05:29;99678.34;;;9.70;100.00
20145;BME280;10233;50.814;6.590;2023-11-21T00:06:29;99684.66;;;9.69;100.00
20145;BME280;10233;50.814;6.590;2023-11-21T00:07:30;99688.94;;;9.70;100.00
20145;BME280;10233;50.814;6.590;2023-11-21T00:08:31;99687.72;;;9.73;100.00
20145;BME280;10233;50.814;6.590;2023-11-21T00:09:32;99685.50;;;9.70;100.00
20145;BME280;10233;50.814;6.590;2023-11-21T00:10:34;99693.28;;;9.65;100.00
20145;BME280;10233;50.814;6.590;2023-11-21T00:11:35;99680.22;;;9.63;100.00
20145;BME280;10233;50.814;6.590;2023-11-21T00:12:35;99684.28;;;9.66;100.00
20145;BME280;10233;50.814;6.590;2023-11-21T00:13:36;99687.53;;;9.68;100.00
20145;BME280;10233;50.814;6.590;2023-11-21T00:14:39;99683.88;;;9.69;100.00
20145;BME280;10233;50.814;6.590;2023-11-21T00:15:40;99683.47;;;9.65;100.00
20145;BME280;10233;50.814;6.590;2023-11-21T00:16:41;99685.50;;;9.70;100.00
20145;BME280;10233;50.814;6.590;2023-11-21T00:17:41;99688.56;;;9.67;100.00
20145;BME280;10233;50.814;6.590;2023-11-21T00:18:42;99688.56;;;9.67;100.00
20145;BME280;10233;50.814;6.590;2023-11-21T00:19:43;99687.50;;;9.74;100.00
20145;BME280;10233;50.814;6.590;2023-11-21T00:20:43;99682.41;;;9.73;100.00
20145;BME280;10233;50.814;6.590;2023-11-21T00:21:44;99691.41;;;9.72;100.00
20145;BME280;10233;50.814;6.590;2023-11-21T00:22:45;99690.38;;;9.73;100.00
20145;BME280;10233;50.814;6.590;2023-11-21T00:23:45;99691.00;;;9.75;100.00
20145;BME280;10233;50.814;6.590;2023-11-21T00:24:46;99693.47;;;9.70;100.00
20145;BME280;10233;50.814;6.590;2023-11-21T00:25:47;99689.13;;;9.75;100.00
20145;BME280;10233;50.814;6.590;2023-11-21T00:26:48;99694.88;;;9.72;100.00
20145;BME280;10233;50.814;6.590;2023-11-21T00:27:49;99696.50;;;9.73;100.00
20145;BME280;10233;50.814;6.590;2023-11-21T00:28:51;99702.84;;;9.72;100.00
20145;BME280;10233;50.814;6.590;2023-11-21T00:29:51;99699.16;;;9.73;100.00
20145;BME280;10233;50.814;6.590;2023-11-21T00:30:52;99702.66;;;9.67;100.00
20145;BME280;10233;50.814;6.590;2023-11-21T00:31:52;99706.72;;;9.70;100.00
20145;BME280;10233;50.814;6.590;2023-11-21T00:32:53;99699.63;;;9.64;100.00
20145;BME280;10233;50.814;6.590;2023-11-21T00:33:54;99704.09;;;9.70;100.00
20145;BME280;10233;50.814;6.590;2023-11-21T00:34:55;99705.06;;;9.75;100.00
20145;BME280;10233;50.814;6.590;2023-11-21T00:35:56;99701.22;;;9.71;100.00
20145;BME280;10233;50.814;6.590;2023-11-21T00:36:57;99703.25;;;9.69;100.00
20145;BME280;10233;50.814;6.590;2023-11-21T00:37:57;99706.91;;;9.75;100.00
20145;BME280;10233;50.814;6.590;2023-11-21T00:38:59;99709.59;;;9.68;100.00
20145;BME280;10233;50.814;6.590;2023-11-21T00:40:00;99704.09;;;9.70;100.00
20145;BME280;10233;50.814;6.590;2023-11-21T00:41:03;99706.94;;;9.68;100.00
20145;BME280;10233;50.814;6.590;2023-11-21T00:42:04;99712.63;;;9.72;100.00
20145;BME280;10233;50.814;6.590;2023-11-21T00:43:05;99703.03;;;9.71;100.00
20145;BME280;10233;50.814;6.590;2023-11-21T00:44:05;99709.97;;;9.72;100.00
20145;BME280;10233;50.814;6.590;2023-11-21T00:45:07;99703.25;;;9.69;100.00
20145;BME280;10233;50.814;6.590;2023-11-21T00:46:08;99704.66;;;9.72;100.00
20145;BME280;10233;50.814;6.590;2023-11-21T00:47:08;99710.19;;;9.70;100.00
20145;BME280;10233;50.814;6.590;2023-11-21T00:48:08;99702.84;;;9.72;100.00
20145;BME280;10233;50.814;6.590;2023-11-21T00:49:09;99710.19;;;9.70;100.00
20145;BME280;10233;50.814;6.590;2023-11-21T00:50:09;99711.41;;;9.68;100.00
20145;BME280;10233;50.814;6.590;2023-11-21T00:51:10;99708.56;;;9.69;100.00
20145;BME280;10233;50.814;6.590;2023-11-21T00:52:11;99707.75;;;9.69;100.00
20145;BME280;10233;50.814;6.590;2023-11-21T00:53:11;99714.31;;;9.66;100.00
20145;BME280;10233;50.814;6.590;2023-11-21T00:54:12;99709.59;;;9.68;100.00
20145;BME280;10233;50.814;6.590;2023-11-21T00:55:12;99706.53;;;9.65;100.00
20145;BME280;10233;50.814;6.590;2023-11-21T00:56:13;99716.13;;;9.66;100.00
20145;BME280;10233;50.814;6.590;2023-11-21T00:57:16;99710.19;;;9.70;100.00
20145;BME280;10233;50.814;6.590;2023-11-21T00:58:16;99715.94;;;9.67;100.00
20145;BME280;10233;50.814;6.590;2023-11-21T00:59:17;99717.56;;;9.68;100.00
20145;BME280;10233;50.814;6.590;2023-11-21T01:00:17;99722.03;;;9.68;100.00
20145;BME280;10233;50.814;6.590;2023-11-21T01:01:18;99718.78;;;9.72;100.00
20145;BME280;10233;50.814;6.590;2023-11-21T01:02:19;99716.72;;;9.68;100.00
20145;BME280;10233;50.814;6.590;2023-11-21T01:03:19;99715.09;;;9.67;100.00
20145;BME280;10233;50.814;6.590;2023-11-21T01:04:20;99719.63;;;9.66;100.00
20145;BME280;10233;50.814;6.590;2023-11-21T01:05:20;99725.50;;;9.68;100.00
20145;BME280;10233;50.814;6.590;2023-11-21T01:06:21;99723.88;;;9.67;100.00
20145;BME280;10233;50.814;6.590;2023-11-21T01:07:22;99726.53;;;9.67;100.00
20145;BME280;10233;50.814;6.590;2023-11-21T01:08:25;99725.72;;;9.67;100.00
20145;BME280;10233;50.814;6.590;2023-11-21T01:09:26;99732.88;;;9.66;100.00
20145;BME280;10233;50.814;6.590;2023-11-21T01:10:28;99733.88;;;9.65;100.00
20145;BME280;10233;50.814;6.590;2023-11-21T01:11:28;99737.56;;;9.64;100.00
20145;BME280;10233;50.814;6.590;2023-11-21T01:12:29;99733.09;;;9.65;100.00
20145;BME280;10233;50.814;6.590;2023-11-21T01:13:29;99738.00;;;9.61;100.00
20145;BME280;10233;50.814;6.590;2023-11-21T01:14:30;99742.69;;;9.59;100.00
20145;BME280;10233;50.814;6.590;2023-11-21T01:15:31;99745.72;;;9.63;100.00
20145;BME280;10233;50.814;6.590;2023-11-21T01:16:32;99746.16;;;9.66;100.00
20145;BME280;10233;50.814;6.590;2023-11-21T01:17:33;99737.75;;;9.63;100.00
20145;BME280;10233;50.814;6.590;2023-11-21T01:18:51;99747.16;;;9.65;100.00
20145;BME280;10233;50.814;6.590;2023-11-21T01:19:51;99741.88;;;9.59;100.00
20145;BME280;10233;50.814;6.590;2023-11-21T01:20:52;99745.13;;;9.61;100.00
20145;BME280;10233;50.814;6.590;2023-11-21T01:21:53;99742.47;;;9.61;100.00
20145;BME280;10233;50.814;6.590;2023-11-21T01:22:54;99742.88;;;9.64;100.00
20145;BME280;10233;50.814;6.590;2023-11-21T01:23:55;99744.75;;;9.57;100.00
20145;BME280;10233;50.814;6.590;2023-11-21T01:24:56;99744.31;;;9.60;100.00
20145;BME280;10233;50.814;6.590;2023-11-21T01:25:57;99745.13;;;9.61;100.00
20145;BME280;10233;50.814;6.590;2023-11-21T01:26:57;99749.63;;;9.60;100.00
20145;BME280;10233;50.814;6.590;2023-11-21T01:27:58;99748.38;;;9.63;100.00
20145;BME280;10233;50.814;6.590;2023-11-21T01:28:59;99753.47;;;9.64;100.00
20145;BME280;10233;50.814;6.590;2023-11-21T01:30:01;99755.94;;;9.66;100.00
20145;BME280;10233;50.814;6.590;2023-11-21T01:31:02;99756.97;;;9.71;100.00
20145;BME280;10233;50.814;6.590;2023-11-21T01:32:03;99748.56;;;9.68;100.00
20145;BME280;10233;50.814;6.590;2023-11-21T01:33:04;99760.00;;;9.75;100.00
20145;BME280;10233;50.814;6.590;2023-11-21T01:34:05;99766.53;;;9.72;100.00
20145;BME280;10233;50.814;6.590;2023-11-21T01:35:05;99762.03;;;9.73;100.00
20145;BME280;10233;50.814;6.590;2023-11-21T01:36:07;99763.25;;;9.70;100.00
20145;BME280;10233;50.814;6.590;2023-11-21T01:37:07;99757.97;;;9.70;100.00
20145;BME280;10233;50.814;6.590;2023-11-21T01:38:09;99755.09;;;9.65;100.00
20145;BME280;10233;50.814;6.590;2023-11-21T01:39:09;99760.66;;;9.64;100.00
20145;BME280;10233;50.814;6.590;2023-11-21T01:40:15;99759.00;;;9.63;100.00
20145;BME280;10233;50.814;6.590;2023-11-21T01:41:16;99765.13;;;9.63;100.00
20145;BME280;10233;50.814;6.590;2023-11-21T01:42:16;99770.63;;;9.62;100.00
20145;BME280;10233;50.814;6.590;2023-11-21T01:43:19;99764.94;;;9.58;100.00
20145;BME280;10233;50.814;6.590;2023-11-21T01:44:20;99768.00;;;9.55;100.00
20145;BME280;10233;50.814;6.590;2023-11-21T01:45:21;99773.72;;;9.52;100.00
20145;BME280;10233;50.814;6.590;2023-11-21T01:46:21;99764.94;;;9.52;100.00
20145;BME280;10233;50.814;6.590;2023-11-21T01:47:22;99767.81;;;9.50;100.00
20145;BME280;10233;50.814;6.590;2023-11-21T01:48:24;99769.22;;;9.53;100.00
20145;BME280;10233;50.814;6.590;2023-11-21T01:49:24;99766.19;;;9.43;100.00
20145;BME280;10233;50.814;6.590;2023-11-21T01:50:25;99767.00;;;9.43;100.00
20145;BME280;10233;50.814;6.590;2023-11-21T01:51:25;99770.69;;;9.42;100.00
20145;BME280;10233;50.814;6.590;2023-11-21T01:52:26;99769.03;;;9.41;100.00
20145;BME280;10233;50.814;6.590;2023-11-21T01:53:30;99776.59;;;9.51;100.00
20145;BME280;10233;50.814;6.590;2023-11-21T01:54:30;99777.22;;;9.46;100.00
20145;BME280;10233;50.814;6.590;2023-11-21T01:55:34;99780.66;;;9.47;100.00
20145;BME280;10233;50.814;6.590;2023-11-21T01:56:35;99771.28;;;9.44;100.00
20145;BME280;10233;50.814;6.590;2023-11-21T01:57:36;99779.03;;;9.52;100.00
20145;BME280;10233;50.814;6.590;2023-11-21T01:58:40;99772.91;;;9.52;100.00
20145;BME280;10233;50.814;6.590;2023-11-21T01:59:42;99769.03;;;9.48;100.00
20145;BME280;10233;50.814;6.590;2023-11-21T02:00:44;99777.41;;;9.51;100.00
20145;BME280;10233;50.814;6.590;2023-11-21T02:01:44;99775.34;;;9.53;100.00
20145;BME280;10233;50.814;6.590;2023-11-21T02:02:48;99777.41;;;9.51;100.00
20145;BME280;10233;50.814;6.590;2023-11-21T02:03:48;99775.75;;;9.50;100.00
20145;BME280;10233;50.814;6.590;2023-11-21T02:04:49;99773.09;;;9.50;100.00
20145;BME280;10233;50.814;6.590;2023-11-21T02:05:49;99771.88;;;9.53;100.00
20145;BME280;10233;50.814;6.590;2023-11-21T02:06:50;99771.69;;;9.54;100.00
20145;BME280;10233;50.814;6.590;2023-11-21T02:07:51;99782.28;;;9.61;100.00
20145;BME280;10233;50.814;6.590;2023-11-21T02:08:52;99776.97;;;9.61;100.00
20145;BME280;10233;50.814;6.590;2023-11-21T02:09:53;99772.25;;;9.63;100.00
20145;BME280;10233;50.814;6.590;2023-11-21T02:10:54;99778.41;;;9.63;100.00
20145;BME280;10233;50.814;6.590;2023-11-21T02:11:54;99780.59;;;9.73;100.00
20145;BME280;10233;50.814;6.590;2023-11-21T02:12:55;99778.41;;;9.63;100.00
20145;BME280;10233;50.814;6.590;2023-11-21T02:13:59;99778.00;;;9.60;100.00
20145;BME280;10233;50.814;6.590;2023-11-21T02:15:00;99786.75;;;9.60;100.00
20145;BME280;10233;50.814;6.590;2023-11-21T02:16:02;99783.50;;;9.58;100.00
20145;BME280;10233;50.814;6.590;2023-11-21T02:17:02;99786.16;;;9.58;100.00
20145;BME280;10233;50.814;6.590;2023-11-21T02:18:05;99784.09;;;9.60;100.00
20145;BME280;10233;50.814;6.590;2023-11-21T02:19:07;99789.84;;;9.64;100.00
20145;BME280;10233;50.814;6.590;2023-11-21T02:20:13;99784.53;;;9.64;100.00
20145;BME280;10233;50.814;6.590;2023-11-21T02:21:18;99784.09;;;9.67;100.00
20145;BME280;10233;50.814;6.590;2023-11-21T02:22:19;99784.72;;;9.69;100.00
20145;BME280;10233;50.814;6.590;2023-11-21T02:23:20;99791.47;;;9.71;100.00
20145;BME280;10233;50.814;6.590;2023-11-21T02:24:22;99790.25;;;9.67;100.00
20145;BME280;10233;50.814;6.590;2023-11-21T02:25:26;99795.34;;;9.69;100.00
20145;BME280;10233;50.814;6.590;2023-11-21T02:26:30;99792.69;;;9.69;100.00
20145;BME280;10233;50.814;6.590;2023-11-21T02:27:31;99792.88;;;9.67;100.00
20145;BME280;10233;50.814;6.590;2023-11-21T02:28:31;99798.22;;;9.61;100.00
20145;BME280;10233;50.814;6.590;2023-11-21T02:29:33;99792.25;;;9.65;100.00
20145;BME280;10233;50.814;6.590;2023-11-21T02:30:34;99796.56;;;9.66;100.00
20145;BME280;10233;50.814;6.590;2023-11-21T02:31:36;99798.81;;;9.63;100.00
20145;BME280;10233;50.814;6.590;2023-11-21T02:32:37;99800.03;;;9.67;100.00
20145;BME280;10233;50.814;6.590;2023-11-21T02:33:40;99800.03;;;9.67;100.00
20145;BME280;10233;50.814;6.590;2023-11-21T02:34:40;99797.38;;;9.67;100.00
20145;BME280;10233;50.814;6.590;2023-11-21T02:35:41;99791.66;;;9.63;100.00
20145;BME280;10233;50.814;6.590;2023-11-21T02:36:44;99802.09;;;9.65;100.00
20145;BME280;10233;50.814;6.590;2023-11-21T02:37:46;99804.31;;;9.68;100.00
20145;BME280;10233;50.814;6.590;2023-11-21T02:38:47;99806.38;;;9.66;100.00
20145;BME280;10233;50.814;6.590;2023-11-21T02:39:47;99802.88;;;9.65;100.00
20145;BME280;10233;50.814;6.590;2023-11-21T02:40:48;99804.34;;;9.61;100.00
20145;BME280;10233;50.814;6.590;2023-11-21T02:41:49;99796.78;;;9.58;100.00
20145;BME280;10233;50.814;6.590;2023-11-21T02:42:50;99797.56;;;9.65;100.00
20145;BME280;10233;50.814;6.590;2023-11-21T02:43:54;99797.56;;;9.65;100.00
20145;BME280;10233;50.814;6.590;2023-11-21T02:44:55;99804.94;;;9.63;100.00
20145;BME280;10233;50.814;6.590;2023-11-21T02:45:57;99804.34;;;9.61;100.00
20145;BME280;10233;50.814;6.590;2023-11-21T02:46:57;99804.94;;;9.63;100.00
20145;BME280;10233;50.814;6.590;2023-11-21T02:47:58;99806.56;;;9.64;100.00
20145;BME280;10233;50.814;6.590;2023-11-21T02:49:05;99804.09;;;9.63;100.00
20145;BME280;10233;50.814;6.590;2023-11-21T02:50:10;99801.25;;;9.64;100.00
20145;BME280;10233;50.814;6.590;2023-11-21T02:51:11;99806.56;;;9.64;100.00
20145;BME280;10233;50.814;6.590;2023-11-21T02:52:11;99803.91;;;9.64;100.00
20145;BME280;10233;50.814;6.590;2023-11-21T02:53:11;99801.06;;;9.66;100.00
20145;BME280;10233;50.814;6.590;2023-11-21T02:54:12;99805.53;;;9.65;100.00
20145;BME280;10233;50.814;6.590;2023-11-21T02:55:13;99809.00;;;9.72;100.00
20145;BME280;10233;50.814;6.590;2023-11-21T02:56:14;99810.44;;;9.81;100.00
20145;BME280;10233;50.814;6.590;2023-11-21T02:57:14;99804.69;;;9.78;100.00
20145;BME280;10233;50.814;6.590;2023-11-21T02:58:14;99811.22;;;9.75;100.00
20145;BME280;10233;50.814;6.590;2023-11-21T02:59:15;99810.84;;;9.72;100.00
20145;BME280;10233;50.814;6.590;2023-11-21T03:00:16;99801.69;;;9.61;100.00
20145;BME280;10233;50.814;6.590;2023-11-21T03:01:17;99809.84;;;9.66;100.00
20145;BME280;10233;50.814;6.590;2023-11-21T03:02:17;99811.28;;;9.62;100.00
20145;BME280;10233;50.814;6.590;2023-11-21T03:03:18;99808.19;;;9.65;100.00
20145;BME280;10233;50.814;6.590;2023-11-21T03:04:19;99812.31;;;9.61;100.00
20145;BME280;10233;50.814;6.590;2023-11-21T03:05:19;99809.84;;;9.60;100.00
20145;BME280;10233;50.814;6.590;2023-11-21T03:06:20;99802.91;;;9.59;100.00
20145;BME280;10233;50.814;6.590;2023-11-21T03:07:21;99803.72;;;9.59;100.00
20145;BME280;10233;50.814;6.590;2023-11-21T03:08:22;99804.34;;;9.61;100.00
20145;BME280;10233;50.814;6.590;2023-11-21T03:09:22;99804.53;;;9.60;100.00
20145;BME280;10233;50.814;6.590;2023-11-21T03:10:22;99805.38;;;9.54;100.00
20145;BME280;10233;50.814;6.590;2023-11-21T03:11:23;99802.50;;;9.55;100.00
20145;BME280;10233;50.814;6.590;2023-11-21T03:12:24;99807.59;;;9.57;100.00
20145;BME280;10233;50.814;6.590;2023-11-21T03:13:26;99812.09;;;9.56;100.00
20145;BME280;10233;50.814;6.590;2023-11-21T03:14:28;99813.34;;;9.54;100.00
20145;BME280;10233;50.814;6.590;2023-11-21T03:15:28;99816.97;;;9.53;100.00
20145;BME280;10233;50.814;6.590;2023-11-21T03:16:29;99813.53;;;9.46;100.00
20145;BME280;10233;50.814;6.590;2023-11-21T03:17:29;99815.97;;;9.47;100.00
20145;BME280;10233;50.814;6.590;2023-11-21T03:18:30;99818.00;;;9.45;100.00
20145;BME280;10233;50.814;6.590;2023-11-21T03:19:31;99819.88;;;9.45;100.00
20145;BME280;10233;50.814;6.590;2023-11-21T03:20:32;99815.78;;;9.42;100.00
20145;BME280;10233;50.814;6.590;2023-11-21T03:21:32;99822.09;;;9.41;100.00
20145;BME280;10233;50.814;6.590;2023-11-21T03:22:33;99821.28;;;9.41;100.00
20145;BME280;10233;50.814;6.590;2023-11-21T03:23:33;99826.16;;;9.44;100.00
20145;BME280;10233;50.814;6.590;2023-11-21T03:24:34;99819.88;;;9.45;100.00
20145;BME280;10233;50.814;6.590;2023-11-21T03:25:35;99818.84;;;9.46;100.00
20145;BME280;10233;50.814;6.590;2023-11-21T03:26:35;99830.47;;;9.51;100.00
20145;BME280;10233;50.814;6.590;2023-11-21T03:27:37;99833.13;;;9.51;100.00
20145;BME280;10233;50.814;6.590;2023-11-21T03:28:39;99829.44;;;9.52;100.00
20145;BME280;10233;50.814;6.590;2023-11-21T03:29:39;99834.34;;;9.49;100.00
20145;BME280;10233;50.814;6.590;2023-11-21T03:30:40;99836.38;;;9.47;100.00
20145;BME280;10233;50.814;6.590;2023-11-21T03:31:41;99833.53;;;9.48;100.00
20145;BME280;10233;50.814;6.590;2023-11-21T03:32:41;99834.75;;;9.46;100.00
20145;BME280;10233;50.814;6.590;2023-11-21T03:33:42;99837.41;;;9.46;100.00
20145;BME280;10233;50.814;6.590;2023-11-21T03:34:56;99835.16;;;9.49;100.00
20145;BME280;10233;50.814;6.590;2023-11-21T03:35:58;99834.97;;;9.51;100.00
20145;BME280;10233;50.814;6.590;2023-11-21T03:36:59;99833.94;;;9.52;100.00
20145;BME280;10233;50.814;6.590;2023-11-21T03:37:59;99838.84;;;9.48;100.00
20145;BME280;10233;50.814;6.590;2023-11-21T03:39:00;99838.00;;;9.48;100.00
20145;BME280;10233;50.814;6.590;2023-11-21T03:40:00;99844.75;;;9.50;100.00
20145;BME280;10233;50.814;6.590;2023-11-21T03:41:01;99840.88;;;9.53;100.00
20145;BME280;10233;50.814;6.590;2023-11-21T03:42:03;99844.34;;;9.53;100.00
20145;BME280;10233;50.814;6.590;2023-11-21T03:43:03;99847.59;;;9.62;100.00
20145;BME280;10233;50.814;6.590;2023-11-21T03:44:04;99850.88;;;9.57;100.00
20145;BME280;10233;50.814;6.590;2023-11-21T03:45:07;99856.78;;;9.59;100.00
20145;BME280;10233;50.814;6.590;2023-11-21T03:46:09;99851.47;;;9.59;100.00
20145;BME280;10233;50.814;6.590;2023-11-21T03:47:10;99856.38;;;9.62;100.00
20145;BME280;10233;50.814;6.590;2023-11-21T03:48:12;99853.53;;;9.57;100.00
20145;BME280;10233;50.814;6.590;2023-11-21T03:49:13;99857.41;;;9.61;100.00
20145;BME280;10233;50.814;6.590;2023-11-21T03:50:15;99858.66;;;9.59;100.00
20145;BME280;10233;50.814;6.590;2023-11-21T03:51:17;99860.88;;;9.55;100.00
20145;BME280;10233;50.814;6.590;2023-11-21T03:52:18;99856.78;;;9.59;100.00
20145;BME280;10233;50.814;6.590;2023-11-21T03:53:18;99865.78;;;9.58;100.00
20145;BME280;10233;50.814;6.590;2023-11-21T03:54:19;99866.81;;;9.64;100.00
20145;BME280;10233;50.814;6.590;2023-11-21T03:55:19;99859.03;;;9.62;100.00
20145;BME280;10233;50.814;6.590;2023-11-21T03:56:20;99860.06;;;9.61;100.00
20145;BME280;10233;50.814;6.590;2023-11-21T03:57:22;99863.94;;;9.59;100.00
20145;BME280;10233;50.814;6.590;2023-11-21T03:58:22;99865.78;;;9.58;100.00
20145;BME280;10233;50.814;6.590;2023-11-21T03:59:23;99862.50;;;9.63;100.00
20145;BME280;10233;50.814;6.590;2023-11-21T04:00:25;99868.44;;;9.65;100.00
20145;BME280;10233;50.814;6.590;2023-11-21T04:01:27;99868.63;;;9.63;100.00
20145;BME280;10233;50.814;6.590;2023-11-21T04:02:27;99863.91;;;9.65;100.00
20145;BME280;10233;50.814;6.590;2023-11-21T04:03:28;99870.25;;;9.64;100.00
20145;BME280;10233;50.814;6.590;2023-11-21T04:04:28;99874.75;;;9.64;100.00
20145;BME280;10233;50.814;6.590;2023-11-21T04:05:29;99873.53;;;9.60;100.00
20145;BME280;10233;50.814;6.590;2023-11-21T04:06:29;99876.19;;;9.60;100.00
20145;BME280;10233;50.814;6.590;2023-11-21T04:07:30;99872.91;;;9.64;100.00
20145;BME280;10233;50.814;6.590;2023-11-21T04:08:31;99871.69;;;9.60;100.00
20145;BME280;10233;50.814;6.590;2023-11-21T04:09:34;99869.47;;;9.57;100.00
20145;BME280;10233;50.814;6.590;2023-11-21T04:10:34;99874.75;;;9.57;100.00
20145;BME280;10233;50.814;6.590;2023-11-21T04:11:35;99877.22;;;9.59;100.00
20145;BME280;10233;50.814;6.590;2023-11-21T04:12:36;99875.78;;;9.56;100.00
20145;BME280;10233;50.814;6.590;2023-11-21T04:13:36;99884.16;;;9.60;100.00
20145;BME280;10233;50.814;6.590;2023-11-21T04:14:36;99876.59;;;9.63;100.00
20145;BME280;10233;50.814;6.590;2023-11-21T04:15:37;99880.03;;;9.70;100.00
20145;BME280;10233;50.814;6.590;2023-11-21T04:16:37;99884.13;;;9.73;100.00
20145;BME280;10233;50.814;6.590;2023-11-21T04:17:38;99880.88;;;9.64;100.00
20145;BME280;10233;50.814;6.590;2023-11-21T04:18:39;99875.16;;;9.67;100.00
20145;BME280;10233;50.814;6.590;2023-11-21T04:19:39;99880.88;;;9.64;100.00
20145;BME280;10233;50.814;6.590;2023-11-21T04:20:40;99880.88;;;9.64;100.00
20145;BME280;10233;50.814;6.590;2023-11-21T04:21:41;99884.56;;;9.63;100.00
20145;BME280;10233;50.814;6.590;2023-11-21T04:22:43;99881.31;;;9.61;100.00
20145;BME280;10233;50.814;6.590;2023-11-21T04:23:44;99874.75;;;9.57;100.00
20145;BME280;10233;50.814;6.590;2023-11-21T04:24:44;99875.34;;;9.59;100.00
20145;BME280;10233;50.814;6.590;2023-11-21T04:25:45;99870.06;;;9.59;100.00
20145;BME280;10233;50.814;6.590;2023-11-21T04:26:45;99882.28;;;9.60;100.00
20145;BME280;10233;50.814;6.590;2023-11-21T04:27:46;99879.44;;;9.55;100.00
20145;BME280;10233;50.814;6.590;2023-11-21T04:28:46;99878.00;;;9.59;100.00
20145;BME280;10233;50.814;6.590;2023-11-21T04:29:47;99881.31;;;9.61;100.00
20145;BME280;10233;50.814;6.590;2023-11-21T04:30:47;99882.72;;;9.57;100.00
20145;BME280;10233;50.814;6.590;2023-11-21T04:31:47;99876.78;;;9.55;100.00
20145;BME280;10233;50.814;6.590;2023-11-21T04:32:49;99881.28;;;9.55;100.00
20145;BME280;10233;50.814;6.590;2023-11-21T04:33:51;99880.88;;;9.51;100.00
20145;BME280;10233;50.814;6.590;2023-11-21T04:34:51;99881.50;;;9.53;100.00
20145;BME280;10233;50.814;6.590;2023-11-21T04:35:52;99879.25;;;9.57;100.00
20145;BME280;10233;50.814;6.590;2023-11-21T04:36:52;99887.41;;;9.55;100.00
20145;BME280;10233;50.814;6.590;2023-11-21T04:37:55;99888.63;;;9.59;100.00
20145;BME280;10233;50.814;6.590;2023-11-21T04:38:57;99887.41;;;9.55;100.00
20145;BME280;10233;50.814;6.590;2023-11-21T04:39:57;99884.16;;;9.53;100.00
20145;BME280;10233;50.814;6.590;2023-11-21T04:40:58;99890.25;;;9.60;100.00
20145;BME280;10233;50.814;6.590;2023-11-21T04:41:58;99889.44;;;9.53;100.00
20145;BME280;10233;50.814;6.590;2023-11-21T04:42:59;99888.44;;;9.61;100.00
20145;BME280;10233;50.814;6.590;2023-11-21T04:43:59;99896.41;;;9.61;100.00
20145;BME280;10233;50.814;6.590;2023-11-21T04:45:06;99890.69;;;9.57;100.00
20145;BME280;10233;50.814;6.590;2023-11-21T04:46:09;99883.72;;;9.63;100.00
20145;BME280;10233;50.814;6.590;2023-11-21T04:47:10;99884.94;;;9.60;100.00
20145;BME280;10233;50.814;6.590;2023-11-21T04:48:10;99882.53;;;9.59;100.00
20145;BME280;10233;50.814;6.590;2023-11-21T04:49:11;99883.53;;;9.64;100.00
20145;BME280;10233;50.814;6.590;2023-11-21T04:50:11;99887.00;;;9.65;100.00
20145;BME280;10233;50.814;6.590;2023-11-21T04:51:12;99888.03;;;9.57;100.00
20145;BME280;10233;50.814;6.590;2023-11-21T04:52:13;99889.03;;;9.50;100.00
20145;BME280;10233;50.814;6.590;2023-11-21T04:53:13;99885.56;;;9.49;100.00
20145;BME280;10233;50.814;6.590;2023-11-21T04:54:14;99887.00;;;9.52;100.00
20145;BME280;10233;50.814;6.590;2023-11-21T04:55:15;99891.72;;;9.56;100.00
20145;BME280;10233;50.814;6.590;2023-11-21T04:56:15;99883.31;;;9.59;100.00
20145;BME280;10233;50.814;6.590;2023-11-21T04:57:18;99886.41;;;9.56;100.00
20145;BME280;10233;50.814;6.590;2023-11-21T04:58:19;99892.91;;;9.60;100.00
20145;BME280;10233;50.814;6.590;2023-11-21T04:59:21;99892.13;;;9.60;100.00
20145;BME280;10233;50.814;6.590;2023-11-21T05:00:24;99891.91;;;9.55;100.00
20145;BME280;10233;50.814;6.590;2023-11-21T05:01:25;99896.38;;;9.54;100.00
20145;BME280;10233;50.814;6.590;2023-11-21T05:02:25;99897.22;;;9.55;100.00
20145;BME280;10233;50.814;6.590;2023-11-21T05:03:26;99895.16;;;9.50;100.00
20145;BME280;10233;50.814;6.590;2023-11-21T05:04:26;99893.53;;;9.49;100.00
20145;BME280;10233;50.814;6.590;2023-11-21T05:05:27;99891.50;;;9.51;100.00
20145;BME280;10233;50.814;6.590;2023-11-21T05:06:27;99895.97;;;9.51;100.00
20145;BME280;10233;50.814;6.590;2023-11-21T05:07:28;99895.56;;;9.47;100.00
20145;BME280;10233;50.814;6.590;2023-11-21T05:12:59;99900.06;;;9.53;100.00
20145;BME280;10233;50.814;6.590;2023-11-21T05:14:53;99902.31;;;9.50;100.00
20145;BME280;10233;50.814;6.590;2023-11-21T05:16:46;99907.00;;;9.54;100.00
20145;BME280;10233;50.814;6.590;2023-11-21T05:34:11;99917.63;;;9.61;100.00
20145;BME280;10233;50.814;6.590;2023-11-21T05:35:14;99934.38;;;9.61;100.00
20145;BME280;10233;50.814;6.590;2023-11-21T05:48:16;99939.88;;;9.66;100.00
20145;BME280;10233;50.814;6.590;2023-11-21T05:49:16;99946.41;;;9.57;100.00
20145;BME280;10233;50.814;6.590;2023-11-21T05:50:17;99941.31;;;9.62;100.00
20145;BME280;10233;50.814;6.590;2023-11-21T05:51:18;99944.56;;;9.64;100.00
20145;BME280;10233;50.814;6.590;2023-11-21T05:52:19;99942.94;;;9.63;100.00
20145;BME280;10233;50.814;6.590;2023-11-21T05:53:20;99941.72;;;9.66;100.00
20145;BME280;10233;50.814;6.590;2023-11-21T05:54:22;99942.53;;;9.66;100.00
20145;BME280;10233;50.814;6.590;2023-11-21T05:55:24;99952.31;;;9.59;100.00
20145;BME280;10233;50.814;6.590;2023-11-21T05:56:25;99948.66;;;9.67;100.00
20145;BME280;10233;50.814;6.590;2023-11-21T05:57:26;99946.19;;;9.65;100.00
20145;BME280;10233;50.814;6.590;2023-11-21T05:58:26;99950.72;;;9.71;100.00